Tribune, Kentucky
Current Conditions -  °F | °C
As of 4:15 PM on Sunday 23 Nov 2014 (Local Time) from K5M9 Reporting Station
Moderate Rain Moderate Rain  
Wind Chill: 56°   Ceiling: 800
Heat Index: 56°   Visibility: 5mi
Dew Point: 55°   Wind: 13mph
Humidity: 99%   Direction: 140°SE
Pressure: 29.34"   Gusts: 18mph
Location:  37.3359°N, 88.1049°W
Report Text: K5M9 232215Z AUTO 14011G16KT 5SM RA BKN008 OVC012 13/13 A2934 RMK AO2 T01310129
Loading
Personal Weather Stations






























Interactive Weather Map New forecast layout! Learn more

10-Day Weather Forecast

Advertisements
Track Severe Weather on mobile